sensor_id;sensor_type;location;lat;lon;timestamp;temperature;humidity
52439;DHT22;38359;53.150;6.504;2023-08-07T00:07:34;16.40;99.90
52439;DHT22;38359;53.150;6.504;2023-08-07T00:18:06;16.40;99.90
52439;DHT22;38359;53.150;6.504;2023-08-07T00:28:32;16.20;99.90
52439;DHT22;38359;53.150;6.504;2023-08-07T00:38:58;15.90;99.90
52439;DHT22;38359;53.150;6.504;2023-08-07T00:49:24;15.80;99.90
52439;DHT22;38359;53.150;6.504;2023-08-07T00:59:50;15.70;99.90
52439;DHT22;38359;53.150;6.504;2023-08-07T01:21:38;15.60;99.90
52439;DHT22;38359;53.150;6.504;2023-08-07T01:43:35;15.50;99.90
52439;DHT22;38359;53.150;6.504;2023-08-07T01:54:01;15.50;99.90
52439;DHT22;38359;53.150;6.504;2023-08-07T02:04:26;15.40;99.90
52439;DHT22;38359;53.150;6.504;2023-08-07T02:15:12;15.50;99.90
52439;DHT22;38359;53.150;6.504;2023-08-07T02:25:38;15.50;99.90
52439;DHT22;38359;53.150;6.504;2023-08-07T02:36:04;15.60;99.90
52439;DHT22;38359;53.150;6.504;2023-08-07T02:46:30;15.60;99.90
52439;DHT22;38359;53.150;6.504;2023-08-07T02:56:57;15.70;99.90
52439;DHT22;38359;53.150;6.504;2023-08-07T03:07:22;16.00;99.90
52439;DHT22;38359;53.150;6.504;2023-08-07T03:17:55;16.00;99.90
52439;DHT22;38359;53.150;6.504;2023-08-07T03:28:21;16.20;99.90
52439;DHT22;38359;53.150;6.504;2023-08-07T03:38:46;16.00;99.90
52439;DHT22;38359;53.150;6.504;2023-08-07T03:49:12;16.10;99.90
52439;DHT22;38359;53.150;6.504;2023-08-07T03:59:38;16.30;99.90
52439;DHT22;38359;53.150;6.504;2023-08-07T04:10:11;16.30;99.90
52439;DHT22;38359;53.150;6.504;2023-08-07T04:20:54;16.40;99.90
52439;DHT22;38359;53.150;6.504;2023-08-07T04:31:20;16.50;99.90
52439;DHT22;38359;53.150;6.504;2023-08-07T04:41:46;16.20;99.90
52439;DHT22;38359;53.150;6.504;2023-08-07T04:52:13;16.10;99.90
52439;DHT22;38359;53.150;6.504;2023-08-07T05:02:38;16.20;99.90
52439;DHT22;38359;53.150;6.504;2023-08-07T05:13:04;16.30;99.90
52439;DHT22;38359;53.150;6.504;2023-08-07T05:23:37;16.50;99.90
52439;DHT22;38359;53.150;6.504;2023-08-07T05:34:03;16.30;99.90
52439;DHT22;38359;53.150;6.504;2023-08-07T05:44:29;16.40;99.90
52439;DHT22;38359;53.150;6.504;2023-08-07T05:54:55;16.20;99.90
52439;DHT22;38359;53.150;6.504;2023-08-07T06:05:28;15.90;99.90
52439;DHT22;38359;53.150;6.504;2023-08-07T06:15:55;15.90;99.90
52439;DHT22;38359;53.150;6.504;2023-08-07T06:26:21;15.90;99.90
52439;DHT22;38359;53.150;6.504;2023-08-07T06:36:47;16.00;99.90
52439;DHT22;38359;53.150;6.504;2023-08-07T06:47:13;16.30;99.90
52439;DHT22;38359;53.150;6.504;2023-08-07T06:57:39;16.00;99.90
52439;DHT22;38359;53.150;6.504;2023-08-07T07:08:05;16.20;99.90
52439;DHT22;38359;53.150;6.504;2023-08-07T07:18:37;16.20;99.90
52439;DHT22;38359;53.150;6.504;2023-08-07T07:29:03;15.60;99.90
52439;DHT22;38359;53.150;6.504;2023-08-07T07:39:29;15.60;99.90
52439;DHT22;38359;53.150;6.504;2023-08-07T07:50:05;15.00;99.90
52439;DHT22;38359;53.150;6.504;2023-08-07T08:00:32;15.40;99.90
52439;DHT22;38359;53.150;6.504;2023-08-07T08:10:58;15.30;99.90
52439;DHT22;38359;53.150;6.504;2023-08-07T08:21:30;15.10;99.90
52439;DHT22;38359;53.150;6.504;2023-08-07T08:31:56;15.00;99.90
52439;DHT22;38359;53.150;6.504;2023-08-07T08:42:22;15.40;99.90
52439;DHT22;38359;53.150;6.504;2023-08-07T08:52:50;15.50;99.90
52439;DHT22;38359;53.150;6.504;2023-08-07T09:03:24;15.90;99.90
52439;DHT22;38359;53.150;6.504;2023-08-07T09:13:57;16.40;99.90
52439;DHT22;38359;53.150;6.504;2023-08-07T09:24:25;16.50;99.90
52439;DHT22;38359;53.150;6.504;2023-08-07T09:34:51;16.80;99.90
52439;DHT22;38359;53.150;6.504;2023-08-07T09:45:24;17.00;99.90
52439;DHT22;38359;53.150;6.504;2023-08-07T09:55:54;16.50;99.90
52439;DHT22;38359;53.150;6.504;2023-08-07T10:06:20;16.90;99.90
52439;DHT22;38359;53.150;6.504;2023-08-07T10:17:07;16.70;99.90
52439;DHT22;38359;53.150;6.504;2023-08-07T10:27:40;16.90;99.90
52439;DHT22;38359;53.150;6.504;2023-08-07T10:38:14;16.90;99.90
52439;DHT22;38359;53.150;6.504;2023-08-07T10:48:44;17.00;99.90
52439;DHT22;38359;53.150;6.504;2023-08-07T10:59:12;17.30;99.90
52439;DHT22;38359;53.150;6.504;2023-08-07T11:09:38;17.60;99.90
52439;DHT22;38359;53.150;6.504;2023-08-07T11:20:11;17.50;99.90
52439;DHT22;38359;53.150;6.504;2023-08-07T11:30:37;17.30;99.90
52439;DHT22;38359;53.150;6.504;2023-08-07T11:41:04;17.20;99.90
52439;DHT22;38359;53.150;6.504;2023-08-07T11:51:32;17.10;99.90
52439;DHT22;38359;53.150;6.504;2023-08-07T12:01:58;16.80;99.90
52439;DHT22;38359;53.150;6.504;2023-08-07T12:12:36;15.90;99.90
52439;DHT22;38359;53.150;6.504;2023-08-07T12:23:14;15.60;99.90
52439;DHT22;38359;53.150;6.504;2023-08-07T12:33:43;14.70;99.90
52439;DHT22;38359;53.150;6.504;2023-08-07T12:44:09;15.80;99.90
52439;DHT22;38359;53.150;6.504;2023-08-07T12:54:35;16.60;99.90
52439;DHT22;38359;53.150;6.504;2023-08-07T13:05:00;17.10;99.90
52439;DHT22;38359;53.150;6.504;2023-08-07T13:15:26;17.70;99.90
52439;DHT22;38359;53.150;6.504;2023-08-07T13:25:59;17.80;99.90
52439;DHT22;38359;53.150;6.504;2023-08-07T13:36:24;16.50;99.90
52439;DHT22;38359;53.150;6.504;2023-08-07T13:46:50;16.20;99.90
52439;DHT22;38359;53.150;6.504;2023-08-07T13:57:16;16.90;99.90
52439;DHT22;38359;53.150;6.504;2023-08-07T14:07:49;18.40;99.90
52439;DHT22;38359;53.150;6.504;2023-08-07T14:18:14;18.60;99.90
52439;DHT22;38359;53.150;6.504;2023-08-07T14:28:41;17.30;99.90
52439;DHT22;38359;53.150;6.504;2023-08-07T14:39:07;18.50;99.90
52439;DHT22;38359;53.150;6.504;2023-08-07T14:49:33;18.50;99.90
52439;DHT22;38359;53.150;6.504;2023-08-07T14:59:59;19.10;99.90
52439;DHT22;38359;53.150;6.504;2023-08-07T15:10:24;17.40;99.90
52439;DHT22;38359;53.150;6.504;2023-08-07T15:20:58;17.50;99.90
52439;DHT22;38359;53.150;6.504;2023-08-07T15:31:26;17.40;99.90
52439;DHT22;38359;53.150;6.504;2023-08-07T15:41:52;16.90;99.90
52439;DHT22;38359;53.150;6.504;2023-08-07T15:52:17;17.30;99.90
52439;DHT22;38359;53.150;6.504;2023-08-07T16:02:43;17.00;99.90
52439;DHT22;38359;53.150;6.504;2023-08-07T16:13:09;17.80;99.90
52439;DHT22;38359;53.150;6.504;2023-08-07T16:23:42;18.00;99.90
52439;DHT22;38359;53.150;6.504;2023-08-07T16:34:08;17.30;99.90
52439;DHT22;38359;53.150;6.504;2023-08-07T16:44:33;17.00;99.90
52439;DHT22;38359;53.150;6.504;2023-08-07T16:54:59;16.60;99.90
52439;DHT22;38359;53.150;6.504;2023-08-07T17:05:26;16.70;99.90
52439;DHT22;38359;53.150;6.504;2023-08-07T17:16:00;16.70;99.90
52439;DHT22;38359;53.150;6.504;2023-08-07T17:26:26;17.60;99.90
52439;DHT22;38359;53.150;6.504;2023-08-07T17:36:54;18.20;99.90
52439;DHT22;38359;53.150;6.504;2023-08-07T17:47:20;18.00;99.90
52439;DHT22;38359;53.150;6.504;2023-08-07T17:57:46;17.90;99.90
52439;DHT22;38359;53.150;6.504;2023-08-07T18:08:12;16.70;99.90
52439;DHT22;38359;53.150;6.504;2023-08-07T18:18:46;16.50;99.90
52439;DHT22;38359;53.150;6.504;2023-08-07T18:29:12;16.30;99.90
52439;DHT22;38359;53.150;6.504;2023-08-07T18:39:38;16.10;99.90
52439;DHT22;38359;53.150;6.504;2023-08-07T18:50:04;15.90;99.90
52439;DHT22;38359;53.150;6.504;2023-08-07T19:00:30;15.60;99.90
52439;DHT22;38359;53.150;6.504;2023-08-07T19:10:56;15.40;99.90
52439;DHT22;38359;53.150;6.504;2023-08-07T19:21:28;15.10;99.90
52439;DHT22;38359;53.150;6.504;2023-08-07T19:31:54;15.00;99.90
52439;DHT22;38359;53.150;6.504;2023-08-07T19:42:20;14.80;99.90
52439;DHT22;38359;53.150;6.504;2023-08-07T19:52:46;14.60;99.90
52439;DHT22;38359;53.150;6.504;2023-08-07T20:03:11;14.30;99.90
52439;DHT22;38359;53.150;6.504;2023-08-07T20:13:45;14.10;99.90
52439;DHT22;38359;53.150;6.504;2023-08-07T20:24:11;14.10;99.90
52439;DHT22;38359;53.150;6.504;2023-08-07T20:34:37;13.90;99.90
52439;DHT22;38359;53.150;6.504;2023-08-07T20:45:03;13.80;99.90
52439;DHT22;38359;53.150;6.504;2023-08-07T20:55:30;13.60;99.90
52439;DHT22;38359;53.150;6.504;2023-08-07T21:06:02;13.60;99.90
52439;DHT22;38359;53.150;6.504;2023-08-07T21:16:28;13.60;99.90
52439;DHT22;38359;53.150;6.504;2023-08-07T21:27:01;13.70;99.90
52439;DHT22;38359;53.150;6.504;2023-08-07T21:37:31;13.90;99.90
52439;DHT22;38359;53.150;6.504;2023-08-07T21:47:57;13.90;99.90
52439;DHT22;38359;53.150;6.504;2023-08-07T21:58:23;14.00;99.90
52439;DHT22;38359;53.150;6.504;2023-08-07T22:08:48;14.10;99.90
52439;DHT22;38359;53.150;6.504;2023-08-07T22:19:20;14.30;99.90
52439;DHT22;38359;53.150;6.504;2023-08-07T22:29:46;14.40;99.90
52439;DHT22;38359;53.150;6.504;2023-08-07T22:40:14;14.50;99.90
52439;DHT22;38359;53.150;6.504;2023-08-07T22:50:39;14.70;99.90
52439;DHT22;38359;53.150;6.504;2023-08-07T23:01:05;14.70;99.90
52439;DHT22;38359;53.150;6.504;2023-08-07T23:11:31;14.70;99.90
52439;DHT22;38359;53.150;6.504;2023-08-07T23:22:03;14.70;99.90
52439;DHT22;38359;53.150;6.504;2023-08-07T23:32:29;14.70;99.90
52439;DHT22;38359;53.150;6.504;2023-08-07T23:42:55;14.80;99.90
52439;DHT22;38359;53.150;6.504;2023-08-07T23:53:21;14.80;99.90
